Boden, Illinois
Current Conditions -  °F | °C
As of 11:52 AM on Friday 24 Oct 2014 (Local Time) from KMLI Reporting Station
Few Clouds Few Clouds  
Wind Chill: 15°   Ceiling: Unl
Heat Index: 15°   Visibility: 8mi
Dew Point: 12°   Wind: 6mph
Humidity: 81%   Direction: 200°SSW
Pressure: 30.05"   Gusts: NA
Location:  41.2864°N, 90.4945°W
Report Text: KMLI 241652Z 20005KT 8SM FEW008 15/12 A3005 RMK AO2 SLP178 T01500117
Loading
Personal Weather Stations






























Interactive Weather Map
Tropical Storm Tracking
New forecast layout! Learn more

10-Day Weather Forecast

Advertisements
Track Severe Weather on mobile